createdAt,value
2019-03-16T00:00:45.961Z,97661.13
2019-03-16T00:03:14.670Z,97677.43
2019-03-16T00:05:44.067Z,97670.41
2019-03-16T00:08:12.759Z,97664.45
2019-03-16T00:10:41.515Z,97663.64
2019-03-16T00:13:10.272Z,97659.30
2019-03-16T00:15:38.969Z,97660.02
2019-03-16T00:18:07.648Z,97663.31
2019-03-16T00:20:36.675Z,97657.66
2019-03-16T00:23:05.655Z,97658.75
2019-03-16T00:25:34.582Z,97658.26
2019-03-16T00:28:03.958Z,97671.58
2019-03-16T00:30:32.993Z,97681.84
2019-03-16T00:33:02.137Z,97691.02
2019-03-16T00:35:30.814Z,97683.45
2019-03-16T00:37:59.524Z,97677.69
2019-03-16T00:40:28.523Z,97684.56
2019-03-16T00:42:57.919Z,97678.58
2019-03-16T00:45:26.896Z,97693.21
2019-03-16T00:47:55.649Z,97702.15
2019-03-16T00:50:24.340Z,97709.75
2019-03-16T00:52:53.097Z,97718.27
2019-03-16T00:55:21.789Z,97713.97
2019-03-16T00:57:50.741Z,97710.98
2019-03-16T01:00:19.504Z,97723.22
2019-03-16T01:02:48.488Z,97719.41
2019-03-16T01:05:17.521Z,97711.59
2019-03-16T01:07:46.922Z,97714.83
2019-03-16T01:10:15.672Z,97713.16
2019-03-16T01:12:44.641Z,97715.81
2019-03-16T01:15:13.897Z,97705.21
2019-03-16T01:17:42.669Z,97700.67
2019-03-16T01:20:11.559Z,97689.63
2019-03-16T01:22:40.312Z,97699.68
2019-03-16T01:25:09.954Z,97708.15
2019-03-16T01:27:38.880Z,97705.17
2019-03-16T01:30:09.840Z,97718.39
2019-03-16T01:32:40.796Z,97716.30
2019-03-16T01:35:09.337Z,97705.72
2019-03-16T01:37:38.114Z,97708.23
2019-03-16T01:40:07.573Z,97704.15
2019-03-16T01:42:36.319Z,97710.94
2019-03-16T01:45:05.461Z,97710.34
2019-03-16T01:47:34.515Z,97708.23
2019-03-16T01:50:03.301Z,97706.87
2019-03-16T01:52:52.756Z,97714.53
2019-03-16T01:55:21.665Z,97716.75
2019-03-16T01:57:50.352Z,97720.56
2019-03-16T02:00:19.126Z,97718.70
2019-03-16T02:02:55.216Z,97725.50
2019-03-16T02:05:18.208Z,97724.95
2019-03-16T02:07:47.150Z,97723.05
2019-03-16T02:10:15.904Z,97722.78
2019-03-16T02:12:44.599Z,97726.36
2019-03-16T02:15:13.717Z,97729.13
2019-03-16T02:17:42.716Z,97724.73
2019-03-16T02:20:11.555Z,97717.77
2019-03-16T02:22:40.340Z,97714.73
2019-03-16T02:25:09.091Z,97719.18
2019-03-16T02:27:38.105Z,97719.94
2019-03-16T02:30:07.136Z,97720.72
2019-03-16T02:32:36.062Z,97720.54
2019-03-16T02:35:05.439Z,97717.22
2019-03-16T02:37:34.856Z,97715.34
2019-03-16T02:40:03.721Z,97711.03
2019-03-16T02:42:32.408Z,97713.48
2019-03-16T02:45:01.096Z,97715.70
2019-03-16T02:47:29.815Z,97735.21
2019-03-16T02:49:58.701Z,97731.41
2019-03-16T02:52:27.659Z,97734.93
2019-03-16T02:54:56.362Z,97723.80
2019-03-16T02:57:25.283Z,97743.68
2019-03-16T02:59:53.966Z,97744.77
2019-03-16T03:02:22.919Z,97760.26
2019-03-16T03:04:51.636Z,97754.49
2019-03-16T03:07:20.542Z,97764.59
2019-03-16T03:09:49.465Z,97755.91
2019-03-16T03:12:18.142Z,97772.15
2019-03-16T03:14:47.362Z,97780.30
2019-03-16T03:17:16.029Z,97768.63
2019-03-16T03:19:45.347Z,97764.59
2019-03-16T03:22:13.975Z,97765.95
2019-03-16T03:24:45.390Z,97773.29
2019-03-16T03:27:14.076Z,97777.37
2019-03-16T03:29:43.044Z,97778.77
2019-03-16T03:32:11.731Z,97795.02
2019-03-16T03:34:40.429Z,97792.02
2019-03-16T03:37:09.074Z,97795.34
2019-03-16T03:39:37.989Z,97797.19
2019-03-16T03:42:07.040Z,97800.67
2019-03-16T03:44:36.239Z,97802.36
2019-03-16T03:47:05.081Z,97797.28
2019-03-16T03:49:33.788Z,97801.62
2019-03-16T03:52:02.666Z,97798.33
2019-03-16T03:54:31.666Z,97795.62
2019-03-16T03:57:00.632Z,97794.08
2019-03-16T03:59:29.641Z,97785.33
2019-03-16T04:01:58.768Z,97796.42
2019-03-16T04:04:27.632Z,97794.21
2019-03-16T04:06:56.385Z,97790.23
2019-03-16T04:09:25.657Z,97788.88
2019-03-16T04:11:54.566Z,97785.92
2019-03-16T04:14:23.245Z,97790.13
2019-03-16T04:16:51.927Z,97793.98
2019-03-16T04:19:20.692Z,97793.38
2019-03-16T04:21:49.834Z,97790.40
2019-03-16T04:24:18.552Z,97791.76
2019-03-16T04:26:47.236Z,97792.36
2019-03-16T04:29:15.944Z,97802.94
2019-03-16T04:31:45.257Z,97803.44
2019-03-16T04:34:28.076Z,97800.77
2019-03-16T04:36:44.332Z,97799.41
2019-03-16T04:39:13.047Z,97805.34
2019-03-16T04:41:41.994Z,97800.22
2019-03-16T04:44:11.008Z,97798.33
2019-03-16T04:46:40.299Z,97786.88
2019-03-16T04:49:09.296Z,97800.67
2019-03-16T04:51:38.233Z,97811.77
2019-03-16T04:54:07.246Z,97813.98
2019-03-16T04:56:36.261Z,97806.59
2019-03-16T04:59:04.946Z,97808.51
2019-03-16T05:01:33.635Z,97807.70
2019-03-16T05:04:02.952Z,97803.02
2019-03-16T05:06:31.706Z,97802.79
2019-03-16T05:09:00.675Z,97814.48
2019-03-16T05:11:29.350Z,97834.77
2019-03-16T05:13:58.056Z,97828.59
2019-03-16T05:16:27.087Z,97822.63
2019-03-16T05:18:55.759Z,97823.49
2019-03-16T05:21:24.539Z,97841.51
2019-03-16T05:23:53.233Z,97826.30
2019-03-16T05:26:21.929Z,97826.90
2019-03-16T05:28:50.686Z,97845.23
2019-03-16T05:31:20.636Z,97842.20
2019-03-16T05:33:49.719Z,97841.70
2019-03-16T05:36:18.921Z,97840.47
2019-03-16T05:38:47.615Z,97850.09
2019-03-16T05:41:16.609Z,97846.97
2019-03-16T05:43:45.293Z,97851.19
2019-03-16T05:46:13.979Z,97850.34
2019-03-16T05:48:42.643Z,97859.73
2019-03-16T05:51:11.573Z,97857.10
2019-03-16T05:53:40.262Z,97867.67
2019-03-16T05:56:10.812Z,97861.08
2019-03-16T05:58:39.861Z,97867.95
2019-03-16T06:01:09.170Z,97869.63
2019-03-16T06:03:38.193Z,97868.67
2019-03-16T06:06:06.930Z,97866.09
2019-03-16T06:08:36.243Z,97875.07
2019-03-16T06:11:05.233Z,97872.09
2019-03-16T06:13:33.918Z,97872.39
2019-03-16T06:16:02.610Z,97875.10
2019-03-16T06:18:31.536Z,97874.59
2019-03-16T06:21:00.204Z,97878.08
2019-03-16T06:23:29.744Z,97881.13
2019-03-16T06:25:58.500Z,97874.38
2019-03-16T06:28:27.456Z,97876.64
2019-03-16T06:30:56.561Z,97876.97
2019-03-16T06:33:25.233Z,97880.44
2019-03-16T06:35:54.172Z,97879.86
2019-03-16T06:38:22.868Z,97876.31
2019-03-16T06:40:51.541Z,97873.87
2019-03-16T06:43:20.452Z,97866.64
2019-03-16T06:45:49.398Z,97875.80
2019-03-16T06:48:18.337Z,97873.93
2019-03-16T06:50:47.532Z,97868.60
2019-03-16T06:53:19.545Z,97870.47
2019-03-16T06:55:46.881Z,97869.69
2019-03-16T06:58:15.596Z,97873.42
2019-03-16T07:00:44.542Z,97868.75
2019-03-16T07:03:13.479Z,97863.48
2019-03-16T07:05:42.480Z,97859.63
2019-03-16T07:08:11.153Z,97851.19
2019-03-16T07:10:41.850Z,97852.84
2019-03-16T07:13:10.791Z,97853.69
2019-03-16T07:15:39.774Z,97847.62
2019-03-16T07:18:08.462Z,97846.07
2019-03-16T07:20:37.140Z,97849.45
2019-03-16T07:23:06.094Z,97853.82
2019-03-16T07:25:34.762Z,97857.38
2019-03-16T07:28:03.402Z,97859.51
2019-03-16T07:30:32.160Z,97843.70
2019-03-16T07:33:01.078Z,97835.66
2019-03-16T07:35:29.764Z,97841.33
2019-03-16T07:37:58.671Z,97851.11
2019-03-16T07:40:27.596Z,97860.23
2019-03-16T07:42:56.294Z,97856.34
2019-03-16T07:45:25.008Z,97846.31
2019-03-16T07:47:53.684Z,97848.58
2019-03-16T07:50:22.370Z,97848.00
2019-03-16T07:52:51.301Z,97838.91
2019-03-16T07:55:19.979Z,97840.64
2019-03-16T07:57:48.657Z,97838.17
2019-03-16T08:00:17.422Z,97838.00
2019-03-16T08:02:46.382Z,97844.81
2019-03-16T08:05:19.389Z,97834.11
2019-03-16T08:07:45.698Z,97825.62
2019-03-16T08:10:14.515Z,97837.36
2019-03-16T08:12:43.213Z,97831.94
2019-03-16T08:15:12.010Z,97818.69
2019-03-16T08:17:40.802Z,97823.53
2019-03-16T08:20:11.280Z,97814.93
2019-03-16T08:22:39.983Z,97812.11
2019-03-16T08:25:08.826Z,97811.02
2019-03-16T08:27:37.501Z,97808.16
2019-03-16T08:30:06.399Z,97812.11
2019-03-16T08:32:35.343Z,97804.98
2019-03-16T08:35:04.171Z,97807.70
2019-03-16T08:37:33.108Z,97786.20
2019-03-16T08:40:12.805Z,97784.18
2019-03-16T08:42:43.177Z,97776.19
2019-03-16T08:45:12.637Z,97775.87
2019-03-16T08:47:41.447Z,97771.66
2019-03-16T08:50:10.684Z,97773.21
2019-03-16T08:52:39.697Z,97764.77
2019-03-16T08:55:08.754Z,97759.61
2019-03-16T08:57:37.521Z,97769.37
2019-03-16T09:00:06.909Z,97767.84
2019-03-16T09:02:35.649Z,97756.73
2019-03-16T09:05:04.615Z,97766.41
2019-03-16T09:07:33.333Z,97761.23
2019-03-16T09:10:02.260Z,97750.97
2019-03-16T09:12:31.209Z,97747.95
2019-03-16T09:14:59.905Z,97739.30
2019-03-16T09:17:28.913Z,97732.62
2019-03-16T09:19:57.859Z,97725.52
2019-03-16T09:22:29.508Z,97715.04
2019-03-16T09:24:57.118Z,97716.34
2019-03-16T09:27:31.171Z,97712.72
2019-03-16T09:29:56.256Z,97703.72
2019-03-16T09:32:25.201Z,97701.77
2019-03-16T09:34:53.898Z,97693.44
2019-03-16T09:37:22.625Z,97689.86
2019-03-16T09:39:51.571Z,97696.65
2019-03-16T09:42:20.278Z,97692.31
2019-03-16T09:44:48.981Z,97677.55
2019-03-16T09:47:18.029Z,97686.78
2019-03-16T09:49:47.263Z,97681.88
2019-03-16T09:52:16.284Z,97684.92
2019-03-16T09:54:45.009Z,97686.55
2019-03-16T09:57:13.758Z,97688.23
2019-03-16T09:59:43.036Z,97673.86
2019-03-16T10:02:12.053Z,97666.78
2019-03-16T10:04:40.799Z,97659.95
2019-03-16T10:07:09.505Z,97651.70
2019-03-16T10:09:38.463Z,97647.47
2019-03-16T10:12:07.166Z,97642.15
2019-03-16T10:14:37.264Z,97636.03
2019-03-16T10:17:06.401Z,97640.26
2019-03-16T10:19:35.209Z,97621.40
2019-03-16T10:22:03.980Z,97627.23
2019-03-16T10:24:32.926Z,97616.89
2019-03-16T10:27:04.379Z,97618.39
2019-03-16T10:29:33.119Z,97614.95
2019-03-16T10:32:02.125Z,97602.11
2019-03-16T10:34:30.907Z,97609.01
2019-03-16T10:37:00.737Z,97600.78
2019-03-16T10:39:29.442Z,97598.62
2019-03-16T10:41:58.650Z,97593.04
2019-03-16T10:44:27.650Z,97607.28
2019-03-16T10:46:56.641Z,97594.94
2019-03-16T10:49:25.353Z,97576.02
2019-03-16T10:51:54.069Z,97593.42
2019-03-16T10:54:22.777Z,97598.03
2019-03-16T10:56:51.490Z,97590.70
2019-03-16T10:59:20.434Z,97587.63
2019-03-16T11:01:49.531Z,97573.77
2019-03-16T11:04:18.517Z,97568.00
2019-03-16T11:06:47.243Z,97571.54
2019-03-16T11:09:16.167Z,97576.67
2019-03-16T11:11:44.861Z,97576.25
2019-03-16T11:14:13.633Z,97558.70
2019-03-16T11:16:42.550Z,97574.39
2019-03-16T11:19:11.511Z,97567.41
2019-03-16T11:21:41.990Z,97566.55
2019-03-16T11:24:10.736Z,97555.47
2019-03-16T11:26:39.429Z,97569.41
2019-03-16T11:29:09.519Z,97560.75
2019-03-16T11:31:38.546Z,97571.74
2019-03-16T11:34:07.403Z,97563.34
2019-03-16T11:36:36.389Z,97557.63
2019-03-16T11:39:07.546Z,97543.17
2019-03-16T11:41:36.458Z,97544.78
2019-03-16T11:44:05.242Z,97550.72
2019-03-16T11:46:34.216Z,97545.65
2019-03-16T11:49:03.478Z,97544.06
2019-03-16T11:51:32.179Z,97549.19
2019-03-16T11:54:01.131Z,97537.96
2019-03-16T11:56:29.869Z,97544.53
2019-03-16T11:58:58.557Z,97543.89
2019-03-16T12:01:27.277Z,97531.23
2019-03-16T12:03:56.220Z,97544.16
2019-03-16T12:06:25.399Z,97555.37
2019-03-16T12:08:54.360Z,97551.19
2019-03-16T12:11:23.140Z,97554.52
2019-03-16T12:13:51.798Z,97528.89
2019-03-16T12:16:20.733Z,97536.86
2019-03-16T12:18:49.791Z,97532.68
2019-03-16T12:21:18.513Z,97538.78
2019-03-16T12:23:47.249Z,97522.16
2019-03-16T12:26:15.978Z,97532.51
2019-03-16T12:28:44.705Z,97527.91
2019-03-16T12:31:13.492Z,97545.43
2019-03-16T12:33:42.210Z,97531.45
2019-03-16T12:36:11.165Z,97501.81
2019-03-16T12:38:43.080Z,97529.70
2019-03-16T12:41:11.798Z,97519.64
2019-03-16T12:43:40.573Z,97528.63
2019-03-16T12:46:09.257Z,97520.45
2019-03-16T12:48:38.005Z,97518.36
2019-03-16T12:51:07.012Z,97518.69
2019-03-16T12:53:35.735Z,97514.81
2019-03-16T12:56:04.458Z,97496.48
2019-03-16T12:58:33.508Z,97501.48
2019-03-16T13:01:02.476Z,97499.34
2019-03-16T13:03:31.453Z,97494.30
2019-03-16T13:06:00.156Z,97480.39
2019-03-16T13:08:29.115Z,97479.75
2019-03-16T13:10:57.866Z,97486.14
2019-03-16T13:13:26.842Z,97481.39
2019-03-16T13:15:55.526Z,97475.52
2019-03-16T13:18:24.496Z,97473.91
2019-03-16T13:20:53.231Z,97467.98
2019-03-16T13:23:22.284Z,97474.72
2019-03-16T13:25:50.987Z,97470.72
2019-03-16T13:28:19.789Z,97470.74
2019-03-16T13:30:49.074Z,97467.70
2019-03-16T13:33:18.025Z,97460.53
2019-03-16T13:35:46.769Z,97460.80
2019-03-16T13:38:15.731Z,97463.52
2019-03-16T13:40:47.080Z,97459.73
2019-03-16T13:43:15.784Z,97459.73
2019-03-16T13:45:45.017Z,97457.15
2019-03-16T13:48:18.978Z,97452.61
2019-03-16T13:50:47.674Z,97460.50
2019-03-16T13:53:16.382Z,97457.67
2019-03-16T13:55:45.167Z,97460.71
2019-03-16T13:58:14.365Z,97457.77
2019-03-16T14:00:43.099Z,97465.62
2019-03-16T14:03:12.792Z,97434.77
2019-03-16T14:05:41.825Z,97451.12
2019-03-16T14:08:10.596Z,97375.80
2019-03-16T14:10:39.883Z,97453.49
2019-03-16T14:13:11.264Z,97456.22
2019-03-16T14:15:39.983Z,97462.86
2019-03-16T14:18:08.678Z,97462.15
2019-03-16T14:20:37.375Z,97446.42
2019-03-16T14:23:06.078Z,97460.31
2019-03-16T14:25:34.972Z,97457.59
2019-03-16T14:28:03.733Z,97453.49
2019-03-16T14:30:40.880Z,97445.77
2019-03-16T14:33:02.864Z,97445.47
2019-03-16T14:35:31.813Z,97451.96
2019-03-16T14:38:00.534Z,97448.13
2019-03-16T14:40:29.293Z,97447.45
2019-03-16T14:42:58.060Z,97447.45
2019-03-16T14:45:27.052Z,97459.69
2019-03-16T14:47:55.991Z,97467.88
2019-03-16T14:50:24.691Z,97441.50
2019-03-16T14:52:53.439Z,97432.28
2019-03-16T14:55:22.143Z,97452.30
2019-03-16T14:57:50.896Z,97449.42
2019-03-16T15:00:19.566Z,97441.23
2019-03-16T15:02:48.246Z,97432.11
2019-03-16T15:05:16.964Z,97433.23
2019-03-16T15:07:45.623Z,97433.23
2019-03-16T15:10:14.410Z,97447.54
2019-03-16T15:12:43.107Z,97442.33
2019-03-16T15:15:12.367Z,97439.34
2019-03-16T15:17:41.063Z,97436.50
2019-03-16T15:20:14.658Z,97446.27
2019-03-16T15:22:43.900Z,97448.88
2019-03-16T15:25:12.596Z,97442.92
2019-03-16T15:27:41.430Z,97436.53
2019-03-16T15:30:12.490Z,97438.45
2019-03-16T15:32:41.334Z,97439.42
2019-03-16T15:35:10.929Z,97445.24
2019-03-16T15:37:39.899Z,97439.54
2019-03-16T15:40:09.623Z,97433.94
2019-03-16T15:42:38.333Z,97426.87
2019-03-16T15:45:09.650Z,97420.09
2019-03-16T15:47:38.365Z,97426.45
2019-03-16T15:50:07.809Z,97433.03
2019-03-16T15:52:37.678Z,97428.04
2019-03-16T15:55:06.896Z,97420.19
2019-03-16T15:57:35.648Z,97416.90
2019-03-16T16:00:05.326Z,97410.88
2019-03-16T16:02:34.721Z,97402.59
2019-03-16T16:05:03.436Z,97402.39
2019-03-16T16:07:35.121Z,97384.14
2019-03-16T16:10:02.792Z,97391.88
2019-03-16T16:12:31.486Z,97379.17
2019-03-16T16:15:00.381Z,97396.69
2019-03-16T16:17:29.334Z,97392.14
2019-03-16T16:19:58.311Z,97395.97
2019-03-16T16:22:26.999Z,97401.87
2019-03-16T16:24:55.699Z,97391.31
2019-03-16T16:27:24.408Z,97380.03
2019-03-16T16:29:53.352Z,97377.62
2019-03-16T16:32:22.274Z,97372.20
2019-03-16T16:34:50.952Z,97376.16
2019-03-16T16:37:19.648Z,97376.45
2019-03-16T16:39:48.592Z,97370.73
2019-03-16T16:42:17.278Z,97368.91
2019-03-16T16:44:46.236Z,97364.47
2019-03-16T16:47:14.978Z,97367.77
2019-03-16T16:49:43.871Z,97371.86
2019-03-16T16:52:12.563Z,97368.45
2019-03-16T16:54:41.554Z,97352.53
2019-03-16T16:57:10.242Z,97360.26
2019-03-16T16:59:38.921Z,97351.87
2019-03-16T17:02:07.994Z,97357.64
2019-03-16T17:04:36.915Z,97357.08
2019-03-16T17:07:05.875Z,97364.02
2019-03-16T17:09:34.844Z,97362.50
2019-03-16T17:12:03.655Z,97376.86
2019-03-16T17:14:32.349Z,97362.99
2019-03-16T17:17:01.287Z,97364.93
2019-03-16T17:19:29.939Z,97368.01
2019-03-16T17:21:58.916Z,97360.82
2019-03-16T17:24:27.691Z,97352.38
2019-03-16T17:26:56.382Z,97355.72
2019-03-16T17:29:25.385Z,97365.72
2019-03-16T17:31:54.401Z,97365.94
2019-03-16T17:34:23.047Z,97362.28
2019-03-16T17:36:52.001Z,97360.02
2019-03-16T17:39:20.689Z,97352.73
2019-03-16T17:41:49.494Z,97352.38
2019-03-16T17:44:18.427Z,97350.72
2019-03-16T17:46:47.118Z,97341.72
2019-03-16T17:49:15.807Z,97344.45
2019-03-16T17:51:44.491Z,97346.41
2019-03-16T17:54:13.450Z,97355.27
2019-03-16T17:56:42.192Z,97339.79
2019-03-16T17:59:10.872Z,97333.97
2019-03-16T18:01:39.590Z,97342.52
2019-03-16T18:04:12.571Z,97336.09
2019-03-16T18:06:46.915Z,97338.07
2019-03-16T18:09:17.222Z,97334.31
2019-03-16T18:11:46.733Z,97325.42
2019-03-16T18:14:17.896Z,97339.78
2019-03-16T18:16:47.516Z,97329.88
2019-03-16T18:19:16.537Z,97318.49
2019-03-16T18:21:45.361Z,97331.23
2019-03-16T18:24:14.189Z,97323.41
2019-03-16T18:26:43.026Z,97315.66
2019-03-16T18:29:12.438Z,97315.16
2019-03-16T18:31:41.552Z,97320.92
2019-03-16T18:34:11.069Z,97328.25
2019-03-16T18:36:40.835Z,97328.25
2019-03-16T18:39:09.811Z,97335.69
2019-03-16T18:41:39.041Z,97318.85
2019-03-16T18:44:07.849Z,97324.35
2019-03-16T18:46:37.315Z,97332.27
2019-03-16T18:49:07.625Z,97324.27
2019-03-16T18:51:44.080Z,97325.17
2019-03-16T18:54:13.132Z,97322.69
2019-03-16T18:56:42.147Z,97323.97
2019-03-16T18:59:11.232Z,97319.76
2019-03-16T19:01:39.913Z,97311.98
2019-03-16T19:04:08.855Z,97305.90
2019-03-16T19:06:37.790Z,97323.61
2019-03-16T19:09:08.435Z,97310.06
2019-03-16T19:11:37.169Z,97310.97
2019-03-16T19:14:05.913Z,97306.52
2019-03-16T19:16:34.855Z,97315.41
2019-03-16T19:19:03.768Z,97302.22
2019-03-16T19:21:34.825Z,97293.57
2019-03-16T19:24:03.541Z,97312.02
2019-03-16T19:26:32.175Z,97317.34
2019-03-16T19:29:00.855Z,97303.69
2019-03-16T19:31:29.833Z,97310.20
2019-03-16T19:33:58.621Z,97291.75
2019-03-16T19:36:27.324Z,97307.89
2019-03-16T19:38:56.255Z,97289.47
2019-03-16T19:41:25.240Z,97297.77
2019-03-16T19:43:53.964Z,97284.46
2019-03-16T19:46:22.643Z,97289.22
2019-03-16T19:48:51.327Z,97287.40
2019-03-16T19:51:20.023Z,97279.00
2019-03-16T19:53:49.213Z,97288.11
2019-03-16T19:56:18.141Z,97276.62
2019-03-16T19:58:59.721Z,97273.33
2019-03-16T20:01:17.758Z,97267.41
2019-03-16T20:03:46.696Z,97268.33
2019-03-16T20:06:25.590Z,97259.22
2019-03-16T20:08:48.265Z,97263.03
2019-03-16T20:11:16.972Z,97273.70
2019-03-16T20:13:45.699Z,97259.22
2019-03-16T20:16:14.649Z,97258.48
2019-03-16T20:18:43.319Z,97260.62
2019-03-16T20:21:12.544Z,97256.83
2019-03-16T20:23:41.267Z,97261.97
2019-03-16T20:26:09.951Z,97259.80
2019-03-16T20:28:40.891Z,97253.94
2019-03-16T20:31:09.588Z,97256.17
2019-03-16T20:33:38.291Z,97249.59
2019-03-16T20:36:07.467Z,97239.33
2019-03-16T20:38:36.412Z,97244.13
2019-03-16T20:41:05.239Z,97240.25
2019-03-16T20:43:33.968Z,97235.69
2019-03-16T20:46:02.973Z,97233.11
2019-03-16T20:48:31.912Z,97235.83
2019-03-16T20:51:00.876Z,97238.46
2019-03-16T20:53:29.568Z,97225.97
2019-03-16T20:55:58.293Z,97238.46
2019-03-16T20:58:26.959Z,97231.28
2019-03-16T21:00:58.070Z,97229.11
2019-03-16T21:03:26.097Z,97218.20
2019-03-16T21:05:55.040Z,97224.46
2019-03-16T21:08:23.714Z,97222.53
2019-03-16T21:10:52.413Z,97222.98
2019-03-16T21:13:21.105Z,97228.00
2019-03-16T21:15:49.789Z,97215.15
2019-03-16T21:18:18.793Z,97219.34
2019-03-16T21:20:47.489Z,97223.20
2019-03-16T21:23:16.207Z,97207.98
2019-03-16T21:25:45.112Z,97202.27
2019-03-16T21:28:15.848Z,97206.13
2019-03-16T21:30:44.472Z,97202.52
2019-03-16T21:33:13.213Z,97204.79
2019-03-16T21:35:42.135Z,97204.79
2019-03-16T21:38:11.075Z,97202.73
2019-03-16T21:40:40.020Z,97205.70
2019-03-16T21:43:08.942Z,97200.91
2019-03-16T21:45:37.611Z,97191.38
2019-03-16T21:48:06.617Z,97181.34
2019-03-16T21:50:35.703Z,97187.70
2019-03-16T21:53:04.741Z,97181.55
2019-03-16T21:55:33.500Z,97168.39
2019-03-16T21:58:03.901Z,97166.33
2019-03-16T22:00:32.579Z,97164.30
2019-03-16T22:03:01.479Z,97164.27
2019-03-16T22:05:30.157Z,97155.73
2019-03-16T22:07:59.605Z,97156.11
2019-03-16T22:10:28.567Z,97156.31
2019-03-16T22:12:57.240Z,97157.92
2019-03-16T22:15:25.918Z,97144.62
2019-03-16T22:17:54.581Z,97148.84
2019-03-16T22:20:23.268Z,97143.14
2019-03-16T22:22:52.446Z,97140.28
2019-03-16T22:25:21.470Z,97155.41
2019-03-16T22:27:51.809Z,97154.73
2019-03-16T22:30:20.730Z,97138.59
2019-03-16T22:32:52.452Z,97151.34
2019-03-16T22:35:24.148Z,97152.95
2019-03-16T22:37:53.209Z,97147.70
2019-03-16T22:40:22.213Z,97129.95
2019-03-16T22:42:51.167Z,97139.72
2019-03-16T22:45:19.923Z,97133.59
2019-03-16T22:47:48.589Z,97123.45
2019-03-16T22:50:17.383Z,97130.62
2019-03-16T22:52:46.038Z,97125.84
2019-03-16T22:55:16.147Z,97122.42
2019-03-16T22:57:45.676Z,97117.20
2019-03-16T23:00:14.833Z,97116.98
2019-03-16T23:02:43.630Z,97113.34
2019-03-16T23:05:12.778Z,97125.42
2019-03-16T23:07:41.447Z,97101.50
2019-03-16T23:10:10.746Z,97092.43
2019-03-16T23:12:39.437Z,97075.56
2019-03-16T23:15:08.244Z,97093.91
2019-03-16T23:17:37.219Z,97082.18
2019-03-16T23:20:06.039Z,97084.46
2019-03-16T23:22:35.025Z,97076.05
2019-03-16T23:25:03.863Z,97061.23
2019-03-16T23:27:32.573Z,97078.09
2019-03-16T23:30:01.934Z,97059.20
2019-03-16T23:32:30.966Z,97068.64
2019-03-16T23:34:59.950Z,97057.48
2019-03-16T23:37:28.636Z,97057.16
2019-03-16T23:39:57.613Z,97059.06
2019-03-16T23:42:26.315Z,97060.00
2019-03-16T23:44:55.018Z,97038.48
2019-03-16T23:47:23.995Z,97049.96
2019-03-16T23:49:52.707Z,97050.89
2019-03-16T23:52:21.675Z,97050.89
2019-03-16T23:54:50.664Z,97040.87
2019-03-16T23:57:19.397Z,97036.44
2019-03-16T23:59:48.896Z,97031.88
